createdAt,value
2023-03-16T00:01:16.962Z,82.70
2023-03-16T00:03:46.664Z,82.10
2023-03-16T00:06:16.391Z,81.50
2023-03-16T00:08:46.094Z,81.40
2023-03-16T00:11:15.795Z,83.00
2023-03-16T00:13:45.512Z,81.20
2023-03-16T00:16:16.566Z,82.20
2023-03-16T00:18:47.667Z,81.50
2023-03-16T00:21:17.346Z,82.50
2023-03-16T00:23:47.020Z,82.50
2023-03-16T00:26:16.947Z,82.30
2023-03-16T00:28:46.620Z,82.30
2023-03-16T00:31:16.487Z,82.10
2023-03-16T00:33:46.307Z,80.90
2023-03-16T00:36:16.903Z,81.20
2023-03-16T00:38:46.842Z,80.50
2023-03-16T00:41:16.930Z,80.80
2023-03-16T00:43:46.711Z,81.70
2023-03-16T00:46:17.904Z,81.60
2023-03-16T00:48:48.612Z,81.30
2023-03-16T00:51:19.662Z,82.00
2023-03-16T00:53:53.005Z,81.90
2023-03-16T00:56:23.137Z,82.00
2023-03-16T00:58:54.404Z,81.90
2023-03-16T01:01:24.823Z,79.50
2023-03-16T01:03:55.847Z,81.10
2023-03-16T01:06:25.977Z,81.50
2023-03-16T01:08:57.837Z,80.70
2023-03-16T01:11:27.890Z,81.00
2023-03-16T01:13:58.008Z,80.30
2023-03-16T01:16:33.224Z,80.40
2023-03-16T01:19:03.452Z,80.60
2023-03-16T01:21:35.023Z,80.70
2023-03-16T01:24:05.825Z,80.60
2023-03-16T01:27:03.455Z,80.50
2023-03-16T01:29:11.784Z,80.20
2023-03-16T01:35:19.916Z,80.10
2023-03-16T01:37:50.593Z,80.40
2023-03-16T01:40:21.051Z,80.20
2023-03-16T01:42:54.392Z,79.80
2023-03-16T01:45:42.032Z,79.20
2023-03-16T01:48:12.282Z,79.50
2023-03-16T01:50:43.164Z,79.10
2023-03-16T01:53:12.861Z,79.40
2023-03-16T01:55:43.554Z,79.80
2023-03-16T01:58:17.551Z,79.40
2023-03-16T02:00:49.475Z,79.20
2023-03-16T02:03:20.655Z,79.10
2023-03-16T02:05:53.412Z,79.00
2023-03-16T02:08:26.002Z,78.80
2023-03-16T02:10:58.866Z,78.30
2023-03-16T02:13:30.793Z,78.30
2023-03-16T02:16:02.829Z,78.10
2023-03-16T02:18:33.469Z,78.10
2023-03-16T02:21:17.394Z,78.00
2023-03-16T02:23:48.566Z,78.20
2023-03-16T02:26:19.679Z,78.10
2023-03-16T02:28:51.092Z,77.90
2023-03-16T02:31:23.308Z,77.80
2023-03-16T02:33:54.815Z,77.00
2023-03-16T02:36:25.135Z,77.10
2023-03-16T02:38:56.313Z,77.10
2023-03-16T02:41:28.493Z,76.40
2023-03-16T02:44:02.400Z,76.00
2023-03-16T02:46:34.215Z,75.80
2023-03-16T02:49:05.517Z,75.30
2023-03-16T02:51:35.438Z,75.30
2023-03-16T02:54:05.998Z,75.30
2023-03-16T02:56:35.870Z,73.80
2023-03-16T02:59:06.958Z,73.20
2023-03-16T03:01:38.278Z,73.10
2023-03-16T03:04:08.715Z,73.00
2023-03-16T03:06:41.598Z,72.80
2023-03-16T03:09:12.678Z,72.90
2023-03-16T03:11:43.549Z,72.10
2023-03-16T03:14:14.479Z,71.80
2023-03-16T03:16:45.934Z,71.50
2023-03-16T03:19:15.961Z,71.20
2023-03-16T03:21:46.013Z,71.10
2023-03-16T03:24:15.694Z,70.90
2023-03-16T03:26:46.502Z,70.20
2023-03-16T03:29:16.519Z,70.40
2023-03-16T03:32:02.330Z,70.20
2023-03-16T03:34:27.634Z,70.00
2023-03-16T03:36:57.438Z,69.90
2023-03-16T03:39:27.572Z,68.80
2023-03-16T03:41:58.503Z,68.70
2023-03-16T03:44:28.610Z,68.90
2023-03-16T03:47:02.846Z,67.60
2023-03-16T03:49:32.900Z,67.50
2023-03-16T03:52:05.379Z,67.50
2023-03-16T03:54:37.676Z,66.70
2023-03-16T03:57:07.616Z,66.30
2023-03-16T03:59:39.092Z,66.10
2023-03-16T04:02:10.924Z,65.60
2023-03-16T04:04:42.094Z,66.10
2023-03-16T04:07:12.276Z,65.70
2023-03-16T04:09:43.091Z,65.30
2023-03-16T04:12:13.744Z,65.50
2023-03-16T04:14:44.453Z,64.80
2023-03-16T04:17:14.342Z,65.90
2023-03-16T04:19:44.586Z,64.70
2023-03-16T04:22:20.339Z,65.00
2023-03-16T04:24:49.657Z,64.30
2023-03-16T04:27:19.366Z,65.00
2023-03-16T04:29:49.124Z,63.90
2023-03-16T04:32:21.842Z,62.60
2023-03-16T04:34:56.138Z,63.90
2023-03-16T04:40:43.936Z,64.60
2023-03-16T04:43:14.789Z,63.50
2023-03-16T04:45:47.905Z,63.40
2023-03-16T04:48:20.848Z,63.30
2023-03-16T04:50:51.459Z,63.00
2023-03-16T04:53:21.884Z,64.50
2023-03-16T04:55:52.332Z,63.00
2023-03-16T04:58:22.083Z,62.90
2023-03-16T05:00:52.997Z,63.30
2023-03-16T05:06:21.358Z,64.00
2023-03-16T05:08:56.877Z,63.70
2023-03-16T05:11:29.356Z,63.70
2023-03-16T05:13:59.225Z,61.10
2023-03-16T05:16:32.575Z,62.60
2023-03-16T05:19:05.432Z,62.50
2023-03-16T05:21:38.671Z,60.30
2023-03-16T05:24:07.307Z,60.10
2023-03-16T05:26:37.062Z,61.20
2023-03-16T05:29:07.107Z,61.00
2023-03-16T05:31:38.508Z,62.50
2023-03-16T05:34:08.983Z,61.80
2023-03-16T05:36:39.534Z,61.50
2023-03-16T05:39:09.818Z,62.30
2023-03-16T05:41:40.608Z,62.50
2023-03-16T05:44:10.774Z,61.90
2023-03-16T05:46:40.685Z,62.00
2023-03-16T05:49:12.542Z,60.10
2023-03-16T05:51:43.273Z,61.60
2023-03-16T05:54:13.025Z,61.30
2023-03-16T05:59:30.667Z,60.70
2023-03-16T06:02:01.544Z,62.60
2023-03-16T06:04:31.290Z,62.40
2023-03-16T06:07:01.028Z,59.70
2023-03-16T06:12:59.921Z,60.50
2023-03-16T06:15:30.798Z,60.20
2023-03-16T06:18:00.494Z,59.40
2023-03-16T06:20:30.506Z,59.60
2023-03-16T06:23:00.998Z,59.60
2023-03-16T06:25:31.228Z,59.70
2023-03-16T06:28:01.268Z,60.00
2023-03-16T06:30:31.085Z,59.50
2023-03-16T06:33:01.428Z,58.50
2023-03-16T06:35:58.742Z,58.80
2023-03-16T06:38:26.956Z,59.20
2023-03-16T06:40:56.695Z,59.00
2023-03-16T06:43:27.838Z,58.90
2023-03-16T06:45:58.114Z,58.40
2023-03-16T06:48:28.209Z,58.00
2023-03-16T06:50:59.426Z,57.10
2023-03-16T06:53:29.641Z,58.10
2023-03-16T06:55:59.708Z,57.40
2023-03-16T06:58:49.693Z,56.60
2023-03-16T07:01:19.890Z,59.60
2023-03-16T07:03:49.710Z,59.30
2023-03-16T07:06:20.107Z,57.50
2023-03-16T07:08:50.967Z,58.30
2023-03-16T07:11:21.733Z,58.50
2023-03-16T07:13:51.806Z,57.60
2023-03-16T07:16:26.451Z,57.10
2023-03-16T07:18:57.468Z,56.80
2023-03-16T07:21:27.558Z,56.40
2023-03-16T07:23:57.632Z,56.30
2023-03-16T07:26:27.719Z,56.90
2023-03-16T07:28:58.282Z,57.30
2023-03-16T07:31:35.160Z,57.10
2023-03-16T07:34:06.468Z,57.00
2023-03-16T07:36:37.031Z,56.70
2023-03-16T07:39:07.514Z,57.20
2023-03-16T07:41:37.246Z,58.10
2023-03-16T07:44:08.136Z,56.90
2023-03-16T07:46:38.421Z,56.00
2023-03-16T07:49:10.374Z,55.80
2023-03-16T07:51:41.703Z,55.20
2023-03-16T07:54:11.983Z,55.20
2023-03-16T07:56:49.392Z,55.90
2023-03-16T07:59:15.686Z,55.00
2023-03-16T08:01:46.940Z,54.70
2023-03-16T08:04:17.966Z,54.90
2023-03-16T08:06:48.139Z,55.00
2023-03-16T08:09:18.192Z,54.20
2023-03-16T08:11:48.282Z,54.50
2023-03-16T08:14:18.606Z,54.50
2023-03-16T08:16:48.760Z,55.00
2023-03-16T08:19:18.980Z,58.20
2023-03-16T08:22:00.628Z,56.70
2023-03-16T08:24:20.548Z,55.70
2023-03-16T08:26:50.259Z,54.80
2023-03-16T08:29:20.116Z,53.80
2023-03-16T08:31:50.790Z,54.50
2023-03-16T08:34:20.941Z,55.20
2023-03-16T08:36:54.110Z,54.80
2023-03-16T08:39:25.928Z,55.10
2023-03-16T08:41:56.330Z,55.00
2023-03-16T08:44:27.770Z,54.80
2023-03-16T08:46:57.674Z,54.20
2023-03-16T08:49:33.766Z,55.30
2023-03-16T08:52:06.919Z,54.90
2023-03-16T08:54:36.687Z,55.60
2023-03-16T08:57:09.244Z,53.50
2023-03-16T08:59:38.120Z,54.90
2023-03-16T09:02:08.568Z,54.80
2023-03-16T09:04:42.590Z,54.00
2023-03-16T09:07:15.809Z,55.40
2023-03-16T09:09:46.407Z,55.80
2023-03-16T09:12:19.746Z,55.20
2023-03-16T09:14:50.060Z,55.60
2023-03-16T09:17:24.201Z,54.80
2023-03-16T09:19:55.717Z,53.90
2023-03-16T09:22:32.187Z,54.20
2023-03-16T09:24:57.900Z,55.20
2023-03-16T09:27:27.945Z,54.90
2023-03-16T09:29:58.211Z,54.80
2023-03-16T09:32:29.035Z,54.50
2023-03-16T09:34:59.005Z,55.70
2023-03-16T09:37:35.342Z,54.50
2023-03-16T09:40:11.680Z,55.00
2023-03-16T09:42:36.351Z,55.10
2023-03-16T09:45:10.417Z,56.00
2023-03-16T09:47:46.249Z,56.00
2023-03-16T09:50:17.530Z,55.70
2023-03-16T09:52:48.730Z,56.10
2023-03-16T09:55:26.370Z,55.80
2023-03-16T09:57:57.393Z,55.70
2023-03-16T10:00:29.014Z,55.90
2023-03-16T10:03:06.356Z,55.30
2023-03-16T10:05:39.342Z,56.20
2023-03-16T10:08:28.132Z,55.90
2023-03-16T10:11:05.756Z,55.90
2023-03-16T10:13:45.775Z,55.80
2023-03-16T10:16:16.994Z,55.90
2023-03-16T10:18:48.148Z,56.50
2023-03-16T10:21:22.007Z,56.30
2023-03-16T10:23:51.855Z,56.10
2023-03-16T10:26:23.993Z,56.60
2023-03-16T10:28:54.133Z,56.80
2023-03-16T10:31:24.983Z,57.10
2023-03-16T10:33:56.673Z,56.40
2023-03-16T10:36:34.791Z,56.70
2023-03-16T10:39:05.957Z,57.00
2023-03-16T10:41:37.718Z,56.80
2023-03-16T10:44:18.537Z,57.00
2023-03-16T10:46:54.024Z,57.20
2023-03-16T10:49:26.561Z,57.20
2023-03-16T10:52:03.881Z,57.40
2023-03-16T10:54:41.035Z,57.40
2023-03-16T10:57:18.022Z,57.20
2023-03-16T10:59:49.209Z,56.80
2023-03-16T11:02:24.729Z,57.40
2023-03-16T11:04:55.457Z,57.50
2023-03-16T11:11:00.277Z,57.70
2023-03-16T11:13:36.791Z,57.90
2023-03-16T11:16:10.624Z,57.80
2023-03-16T11:18:47.629Z,58.00
2023-03-16T11:21:27.517Z,58.10
2023-03-16T11:23:59.055Z,58.00
2023-03-16T11:26:36.521Z,58.10
2023-03-16T11:29:21.508Z,58.30
2023-03-16T11:32:28.063Z,58.40
2023-03-16T11:34:58.085Z,58.60
2023-03-16T11:37:29.413Z,58.60
2023-03-16T11:40:00.436Z,58.60
2023-03-16T11:42:34.634Z,58.60
2023-03-16T11:45:23.998Z,58.60
2023-03-16T11:47:58.035Z,58.70
2023-03-16T11:50:32.330Z,58.70
2023-03-16T11:53:03.565Z,58.70
2023-03-16T11:55:40.283Z,58.80
2023-03-16T11:58:29.016Z,58.90
2023-03-16T12:01:03.045Z,59.00
2023-03-16T12:03:41.401Z,59.00
2023-03-16T12:06:48.486Z,59.10
2023-03-16T12:20:58.617Z,59.60
2023-03-16T12:35:43.299Z,60.90
2023-03-16T12:41:46.654Z,61.40
2023-03-16T12:44:18.747Z,61.70
2023-03-16T12:47:05.973Z,61.90
2023-03-16T12:52:35.566Z,62.70
2023-03-16T12:55:33.911Z,62.80
2023-03-16T12:58:24.734Z,62.90
2023-03-16T13:06:47.766Z,64.10
2023-03-16T13:12:14.790Z,64.30
2023-03-16T13:17:40.838Z,64.50
2023-03-16T13:20:29.892Z,64.70
2023-03-16T13:22:56.302Z,64.90
2023-03-16T13:25:31.974Z,64.90
2023-03-16T13:28:03.306Z,64.80
2023-03-16T13:30:34.078Z,64.90
2023-03-16T13:33:05.115Z,65.10
2023-03-16T13:35:36.926Z,65.10
2023-03-16T13:38:10.467Z,64.90
2023-03-16T13:40:45.058Z,65.50
2023-03-16T13:43:17.789Z,65.30
2023-03-16T13:45:51.226Z,65.40
2023-03-16T13:48:48.202Z,65.40
2023-03-16T13:53:46.854Z,65.70
2023-03-16T13:56:28.978Z,65.50
2023-03-16T13:59:07.649Z,65.50
2023-03-16T14:01:34.549Z,65.90
2023-03-16T14:04:10.041Z,66.10
2023-03-16T14:06:44.926Z,66.40
2023-03-16T14:09:20.966Z,66.10
2023-03-16T14:11:54.437Z,66.00
2023-03-16T14:14:28.069Z,66.20
2023-03-16T14:17:00.409Z,66.10
2023-03-16T14:19:32.225Z,66.30
2023-03-16T14:22:04.651Z,66.70
2023-03-16T14:24:40.510Z,66.70
2023-03-16T14:27:20.901Z,66.80
2023-03-16T14:29:54.732Z,66.80
2023-03-16T14:32:33.661Z,67.20
2023-03-16T14:35:09.157Z,66.80
2023-03-16T14:37:39.512Z,66.90
2023-03-16T14:40:10.545Z,66.80
2023-03-16T14:42:42.934Z,67.00
2023-03-16T14:45:15.739Z,67.20
2023-03-16T14:47:46.939Z,67.10
2023-03-16T14:50:17.969Z,67.20
2023-03-16T14:52:47.847Z,67.30
2023-03-16T14:55:22.064Z,67.30
2023-03-16T14:57:53.352Z,67.40
2023-03-16T15:00:23.974Z,67.70
2023-03-16T15:02:56.767Z,67.80
2023-03-16T15:05:29.427Z,68.00
2023-03-16T15:07:58.543Z,68.40
2023-03-16T15:10:32.050Z,68.50
2023-03-16T15:13:22.334Z,68.10
2023-03-16T15:16:03.209Z,68.30
2023-03-16T15:18:33.756Z,68.90
2023-03-16T15:21:04.688Z,68.60
2023-03-16T15:23:41.950Z,68.80
2023-03-16T15:26:26.358Z,69.10
2023-03-16T15:29:06.182Z,69.10
2023-03-16T15:31:35.933Z,70.00
2023-03-16T15:34:05.703Z,69.50
2023-03-16T15:36:40.009Z,69.50
2023-03-16T15:39:11.106Z,69.70
2023-03-16T15:41:47.828Z,69.60
2023-03-16T15:44:14.956Z,69.50
2023-03-16T15:46:44.690Z,69.50
2023-03-16T15:49:25.845Z,69.40
2023-03-16T15:51:55.699Z,69.50
2023-03-16T15:54:25.752Z,70.10
2023-03-16T15:56:57.132Z,70.10
2023-03-16T15:59:29.263Z,69.70
2023-03-16T16:01:58.974Z,69.70
2023-03-16T16:04:28.785Z,70.60
2023-03-16T16:07:01.848Z,69.60
2023-03-16T16:09:32.661Z,69.70
2023-03-16T16:12:07.669Z,69.70
2023-03-16T16:14:37.868Z,69.90
2023-03-16T16:17:10.814Z,69.80
2023-03-16T16:19:40.605Z,69.80
2023-03-16T16:22:14.296Z,69.80
2023-03-16T16:24:45.426Z,69.50
2023-03-16T16:27:15.441Z,69.10
2023-03-16T16:29:46.056Z,69.20
2023-03-16T16:32:19.933Z,69.70
2023-03-16T16:35:03.474Z,70.00
2023-03-16T16:37:23.698Z,70.00
2023-03-16T16:39:53.682Z,70.60
2023-03-16T16:42:23.470Z,70.80
2023-03-16T16:44:57.079Z,70.80
2023-03-16T16:47:26.306Z,71.30
2023-03-16T16:49:56.008Z,70.90
2023-03-16T16:52:32.115Z,71.00
2023-03-16T16:55:01.924Z,71.30
2023-03-16T16:57:32.817Z,71.30
2023-03-16T17:00:02.974Z,71.40
2023-03-16T17:02:33.659Z,71.90
2023-03-16T17:05:03.306Z,71.90
2023-03-16T17:07:36.362Z,72.10
2023-03-16T17:10:06.487Z,72.20
2023-03-16T17:12:36.679Z,72.70
2023-03-16T17:15:07.742Z,73.00
2023-03-16T17:17:39.238Z,72.70
2023-03-16T17:20:10.476Z,72.20
2023-03-16T17:22:40.187Z,71.80
2023-03-16T17:25:10.237Z,71.40
2023-03-16T17:27:39.969Z,71.30
2023-03-16T17:30:13.889Z,71.30
2023-03-16T17:32:46.915Z,71.50
2023-03-16T17:35:20.249Z,72.10
2023-03-16T17:37:49.987Z,72.30
2023-03-16T17:40:20.702Z,72.60
2023-03-16T17:42:53.288Z,73.20
2023-03-16T17:48:35.555Z,73.60
2023-03-16T17:51:04.781Z,74.50
2023-03-16T17:53:34.534Z,74.50
2023-03-16T17:56:04.246Z,74.60
2023-03-16T17:58:33.862Z,74.40
2023-03-16T18:01:04.247Z,74.40
2023-03-16T18:03:33.949Z,74.40
2023-03-16T18:06:03.695Z,74.40
2023-03-16T18:08:37.693Z,74.30
2023-03-16T18:11:09.081Z,74.70
2023-03-16T18:13:41.984Z,74.20
2023-03-16T18:16:12.925Z,73.50
2023-03-16T18:18:43.762Z,73.70
2023-03-16T18:21:27.104Z,73.60
2023-03-16T18:23:56.999Z,73.60
2023-03-16T18:26:28.147Z,74.00
2023-03-16T18:28:59.127Z,73.80
2023-03-16T18:31:29.872Z,73.50
2023-03-16T18:34:01.693Z,73.70
2023-03-16T18:36:32.548Z,73.90
2023-03-16T18:39:03.364Z,74.20
2023-03-16T18:41:35.561Z,74.00
2023-03-16T18:44:07.101Z,74.00
2023-03-16T18:46:38.113Z,73.90
2023-03-16T18:49:21.287Z,73.80
2023-03-16T18:51:52.317Z,73.70
2023-03-16T18:54:23.208Z,73.80
2023-03-16T18:56:55.847Z,74.20
2023-03-16T18:59:24.935Z,74.60
2023-03-16T19:02:13.687Z,74.70
2023-03-16T19:04:43.412Z,75.40
2023-03-16T19:07:14.263Z,75.40
2023-03-16T19:10:12.185Z,74.80
2023-03-16T19:12:41.874Z,74.50
2023-03-16T19:15:22.052Z,75.40
2023-03-16T19:17:51.899Z,76.10
2023-03-16T19:20:22.819Z,76.40
2023-03-16T19:22:53.890Z,76.80
2023-03-16T19:25:24.996Z,75.80
2023-03-16T19:27:55.073Z,76.30
2023-03-16T19:30:26.004Z,77.00
2023-03-16T19:32:56.650Z,77.40
2023-03-16T19:35:40.109Z,76.80
2023-03-16T19:37:57.989Z,77.70
2023-03-16T19:40:27.642Z,77.90
2023-03-16T19:42:58.794Z,77.40
2023-03-16T19:45:32.520Z,76.80
2023-03-16T19:48:02.883Z,77.60
2023-03-16T19:50:33.085Z,77.00
2023-03-16T19:53:03.283Z,77.40
2023-03-16T19:55:33.780Z,76.70
2023-03-16T19:58:06.023Z,76.70
2023-03-16T20:00:36.085Z,77.30
2023-03-16T20:03:09.003Z,77.40
2023-03-16T20:05:40.106Z,77.20
2023-03-16T20:08:10.950Z,77.30
2023-03-16T20:10:40.633Z,77.20
2023-03-16T20:13:13.799Z,76.90
2023-03-16T20:15:43.573Z,76.70
2023-03-16T20:18:19.006Z,76.60
2023-03-16T20:20:51.299Z,77.60
2023-03-16T20:23:22.166Z,78.10
2023-03-16T20:25:53.108Z,79.30
2023-03-16T20:28:27.562Z,79.40
2023-03-16T20:30:59.416Z,78.90
2023-03-16T20:33:29.792Z,79.50
2023-03-16T20:36:14.733Z,79.50
2023-03-16T20:38:40.444Z,79.70
2023-03-16T20:41:17.377Z,79.30
2023-03-16T20:43:47.749Z,79.00
2023-03-16T20:46:18.708Z,78.90
2023-03-16T20:48:50.099Z,79.80
2023-03-16T20:51:19.802Z,79.60
2023-03-16T20:53:50.135Z,79.70
2023-03-16T20:56:41.782Z,79.70
2023-03-16T20:59:17.166Z,79.50
2023-03-16T21:01:47.156Z,80.60
2023-03-16T21:07:41.833Z,80.30
2023-03-16T21:10:17.086Z,79.90
2023-03-16T21:12:50.004Z,80.50
2023-03-16T21:15:20.927Z,80.10
2023-03-16T21:17:52.577Z,80.80
2023-03-16T21:20:24.386Z,80.40
2023-03-16T21:22:54.142Z,80.70
2023-03-16T21:25:44.778Z,80.70
2023-03-16T21:31:03.932Z,80.20
2023-03-16T21:33:47.323Z,79.90
2023-03-16T21:36:18.124Z,80.30
2023-03-16T21:38:50.958Z,80.40
2023-03-16T21:41:20.729Z,81.00
2023-03-16T21:43:58.620Z,81.00
2023-03-16T21:46:31.470Z,80.70
2023-03-16T21:49:02.023Z,79.50
2023-03-16T21:51:32.866Z,80.60
2023-03-16T21:54:06.662Z,81.40
2023-03-16T21:56:36.725Z,81.80
2023-03-16T21:59:06.920Z,81.40
2023-03-16T22:02:00.376Z,81.80
2023-03-16T22:04:15.563Z,82.00
2023-03-16T22:06:48.891Z,81.40
2023-03-16T22:09:19.561Z,81.90
2023-03-16T22:11:59.103Z,82.40
2023-03-16T22:14:29.056Z,82.00
2023-03-16T22:17:01.556Z,81.50
2023-03-16T22:19:34.556Z,80.90
2023-03-16T22:22:06.316Z,82.20
2023-03-16T22:24:38.491Z,81.80
2023-03-16T22:27:13.237Z,81.80
2023-03-16T22:29:50.813Z,82.10
2023-03-16T22:32:21.886Z,82.40
2023-03-16T22:34:52.788Z,82.00
2023-03-16T22:37:26.258Z,81.30
2023-03-16T22:39:55.679Z,82.30
2023-03-16T22:42:35.361Z,82.00
2023-03-16T22:45:09.646Z,81.40
2023-03-16T22:47:44.922Z,82.40
2023-03-16T22:50:19.945Z,80.20
2023-03-16T22:52:50.759Z,79.40
2023-03-16T22:55:37.187Z,79.30
2023-03-16T22:58:09.696Z,81.30
2023-03-16T23:00:42.181Z,81.30
2023-03-16T23:03:20.372Z,82.00
2023-03-16T23:05:50.626Z,82.70
2023-03-16T23:08:24.475Z,82.40
2023-03-16T23:11:00.117Z,83.30
2023-03-16T23:13:30.625Z,83.10
2023-03-16T23:18:50.936Z,84.20
2023-03-16T23:21:22.501Z,84.30
2023-03-16T23:24:03.555Z,85.80
2023-03-16T23:26:27.515Z,85.30
2023-03-16T23:28:57.621Z,85.40
2023-03-16T23:31:29.193Z,85.50
2023-03-16T23:34:02.360Z,85.10
2023-03-16T23:36:33.734Z,85.40
2023-03-16T23:39:04.738Z,85.10
2023-03-16T23:41:34.642Z,85.20
2023-03-16T23:44:07.131Z,85.30
2023-03-16T23:46:38.746Z,85.40
2023-03-16T23:51:58.416Z,84.90
2023-03-16T23:54:33.092Z,85.10
2023-03-16T23:57:03.467Z,85.10
